Time;durP1;ratioP1;P1;durP2;ratioP2;P2;SDS_P1;SDS_P2;PMS_P1;PMS_P2;Temp;Humidity;BMP_temperature;BMP_pressure;BME280_temperature;BME280_humidity;BME280_pressure;Samples;Min_cycle;Max_cycle;Signal;HPM_P1;HPM_P2
2022/09/08 00:01:30;;;;;;;10.43;8.10;;;;;;;16.26;100.00;99475.16;5056135;28;20193;-85
2022/09/08 00:03:57;;;;;;;13.03;8.80;;;;;;;16.81;100.00;99590.56;5053828;28;20212;-85
2022/09/08 00:06:22;;;;;;;11.63;7.90;;;;;;;14.68;100.00;99234.13;5053185;28;20166;-86
2022/09/08 00:08:48;;;;;;;13.40;7.90;;;;;;;15.94;100.00;99493.16;5063409;28;20181;-84
2022/09/08 00:11:23;;;;;;;15.10;8.63;;;;;;;16.68;100.00;99605.59;5074275;28;20252;-85
2022/09/08 00:13:49;;;;;;;15.20;8.73;;;;;;;14.61;100.00;99293.38;5073703;28;20172;-85
2022/09/08 00:16:18;;;;;;;16.17;8.80;;;;;;;16.34;100.00;99575.84;5072878;28;20571;-84
2022/09/08 00:18:44;;;;;;;12.03;8.60;;;;;;;16.41;100.00;99593.03;5064243;28;20174;-86
2022/09/08 00:21:09;;;;;;;14.30;8.50;;;;;;;16.47;100.00;99598.28;5054635;28;20610;-86
2022/09/08 00:23:35;;;;;;;13.63;8.67;;;;;;;16.18;100.00;99541.38;5068227;28;20170;-85
2022/09/08 00:26:01;;;;;;;13.57;8.60;;;;;;;14.41;100.00;99251.28;5068294;28;20173;-85
2022/09/08 00:28:27;;;;;;;13.67;8.53;;;;;;;16.51;100.00;99595.84;5054039;28;20529;-86
2022/09/08 00:30:54;;;;;;;11.87;8.17;;;;;;;16.00;100.00;99501.78;5072711;28;20176;-85
2022/09/08 00:33:20;;;;;;;11.53;7.80;;;;;;;13.72;100.00;99142.47;5074348;28;20240;-85
2022/09/08 00:35:48;;;;;;;10.73;8.40;;;;;;;16.25;100.00;99601.16;5079249;28;20220;-86
2022/09/08 00:38:13;;;;;;;16.23;8.50;;;;;;;15.52;100.00;99481.88;5078690;28;20171;-83
2022/09/08 00:40:46;;;;;;;12.60;9.07;;;;;;;15.85;100.00;99538.03;5081312;28;20550;-85
2022/09/08 00:43:40;;;;;;;12.10;8.63;;;;;;;16.08;100.00;99592.22;5058208;28;20626;-86
2022/09/08 00:46:08;;;;;;;12.33;8.90;;;;;;;16.25;100.00;99612.25;5053904;28;20165;-85
2022/09/08 00:48:45;;;;;;;12.17;8.63;;;;;;;13.24;100.00;99125.00;5054765;28;20181;-84
2022/09/08 00:51:12;;;;;;;11.67;9.10;;;;;;;14.31;100.00;99361.31;5053684;28;20161;-86
2022/09/08 00:53:38;;;;;;;12.23;9.33;;;;;;;15.23;100.00;99593.34;5053354;28;20212;-84
2022/09/08 00:56:05;;;;;;;12.20;9.50;;;;;;;15.38;100.00;99626.09;5052243;28;20193;-85
2022/09/08 00:58:34;;;;;;;13.20;9.47;;;;;;;14.65;100.00;99511.78;5058336;28;20168;-85
2022/09/08 01:01:00;;;;;;;13.53;9.47;;;;;;;14.45;100.00;99495.03;5072782;28;20537;-85
2022/09/08 01:03:26;;;;;;;13.90;9.67;;;;;;;14.29;100.00;99505.56;5074887;28;20219;-85
2022/09/08 01:06:02;;;;;;;14.57;9.90;;;;;;;15.01;100.00;99620.72;5072839;28;20188;-85
2022/09/08 01:14:45;;;;;;;13.93;9.90;;;;;;;15.45;100.00;99627.97;5052623;28;20656;-85
2022/09/08 01:17:16;;;;;;;13.93;9.47;;;;;;;15.41;100.00;99622.75;5061381;28;20208;-85
2022/09/08 01:19:45;;;;;;;14.23;9.40;;;;;;;15.17;100.00;99577.00;5081028;28;20224;-85
2022/09/08 01:22:48;;;;;;;14.97;10.20;;;;;;;15.54;100.00;99619.75;5105487;28;20184;-85
2022/09/08 01:25:43;;;;;;;15.53;10.17;;;;;;;15.14;100.00;99594.75;5071428;28;20550;-85
2022/09/08 01:28:22;;;;;;;14.30;9.93;;;;;;;15.39;100.00;99617.59;5052418;28;20189;-85
2022/09/08 01:30:49;;;;;;;13.87;9.87;;;;;;;14.96;100.00;99546.66;5052757;28;20170;-85
2022/09/08 01:33:16;;;;;;;15.23;10.40;;;;;;;13.32;100.00;99260.84;5052444;28;20176;-85
2022/09/08 01:35:43;;;;;;;14.13;10.10;;;;;;;14.57;100.00;99476.72;5063123;28;20205;-85
2022/09/08 01:38:10;;;;;;;14.23;10.47;;;;;;;14.70;100.00;99551.00;5072425;28;20201;-85
2022/09/08 01:40:38;;;;;;;13.77;10.37;;;;;;;12.54;100.00;99182.97;5072606;28;20173;-85
2022/09/08 01:43:06;;;;;;;14.90;10.10;;;;;;;15.04;100.00;99595.31;5071127;28;20242;-85
2022/09/08 01:45:32;;;;;;;16.13;10.40;;;;;;;13.73;100.00;99365.53;5066086;28;20170;-85
2022/09/08 01:47:57;;;;;;;13.73;10.37;;;;;;;12.15;100.00;99081.00;5056493;28;20227;-85
2022/09/08 01:50:22;;;;;;;18.07;10.90;;;;;;;14.29;100.00;99433.38;5057248;28;20173;-85
2022/09/08 01:52:49;;;;;;;16.27;10.57;;;;;;;13.92;100.00;99395.81;5056649;28;20257;-85
2022/09/08 01:55:14;;;;;;;13.90;10.20;;;;;;;14.28;100.00;99468.19;5061243;28;20633;-85
2022/09/08 01:57:39;;;;;;;14.67;10.40;;;;;;;13.74;100.00;99379.97;5078018;28;20176;-86
2022/09/08 02:00:06;;;;;;;14.30;10.43;;;;;;;13.96;100.00;99413.75;5094916;28;20694;-85
2022/09/08 02:02:32;;;;;;;14.37;10.10;;;;;;;13.59;100.00;99339.66;5080117;28;20173;-86
2022/09/08 02:04:57;;;;;;;15.33;10.07;;;;;;;13.80;100.00;99373.38;5080893;28;20187;-86
2022/09/08 02:07:22;;;;;;;14.50;10.20;;;;;;;12.42;100.00;99109.81;5059766;28;20169;-84
2022/09/08 02:09:48;;;;;;;18.77;10.57;;;;;;;14.62;100.00;99495.53;5058553;28;20208;-85
2022/09/08 02:12:13;;;;;;;15.27;10.43;;;;;;;14.54;100.00;99502.97;5058881;28;20231;-85
2022/09/08 02:14:39;;;;;;;15.70;10.97;;;;;;;14.89;100.00;99547.31;5065804;28;20546;-85
2022/09/08 02:17:04;;;;;;;18.10;11.00;;;;;;;15.13;100.00;99573.53;5075980;28;20235;-86
2022/09/08 02:19:30;;;;;;;15.03;10.80;;;;;;;11.68;100.00;99013.47;5077267;28;20173;-86
2022/09/08 02:21:55;;;;;;;15.00;10.17;;;;;;;14.04;100.00;99409.75;5078318;28;20590;-86
2022/09/08 02:24:20;;;;;;;19.80;10.70;;;;;;;12.63;100.00;99175.66;5075220;28;20656;-86
2022/09/08 02:26:46;;;;;;;15.03;10.70;;;;;;;13.21;100.00;99346.06;5090528;28;20181;-85
2022/09/08 02:29:11;;;;;;;16.07;11.43;;;;;;;14.60;100.00;99573.63;5059567;28;20635;-86
2022/09/08 02:31:37;;;;;;;16.67;11.40;;;;;;;14.50;100.00;99572.47;5090427;28;20319;-86
2022/09/08 02:34:04;;;;;;;15.67;10.67;;;;;;;13.19;100.00;99334.13;5056834;28;20355;-85
2022/09/08 02:36:29;;;;;;;16.00;11.70;;;;;;;13.83;100.00;99419.28;5077421;28;20207;-84
2022/09/08 02:38:55;;;;;;;15.43;11.73;;;;;;;14.32;100.00;99510.78;5093887;28;20173;-84
2022/09/08 02:41:22;;;;;;;18.20;12.63;;;;;;;14.87;100.00;99569.34;5079490;28;20161;-85
2022/09/08 02:43:48;;;;;;;21.27;12.30;;;;;;;13.46;100.00;99330.78;5079335;28;20169;-85
2022/09/08 02:46:14;;;;;;;18.20;12.60;;;;;;;13.50;100.00;99332.63;5064678;28;20207;-85
2022/09/08 02:48:40;;;;;;;17.00;12.00;;;;;;;14.30;100.00;99461.47;5061555;28;20223;-85
2022/09/08 02:51:08;;;;;;;18.13;13.10;;;;;;;13.39;100.00;99336.50;5061925;28;20165;-85
2022/09/08 02:53:34;;;;;;;16.57;12.20;;;;;;;13.90;100.00;99415.25;5060361;28;20166;-85
2022/09/08 02:56:01;;;;;;;16.73;11.90;;;;;;;13.50;100.00;99391.13;5079529;28;20196;-85
2022/09/08 02:58:27;;;;;;;17.43;12.57;;;;;;;13.42;100.00;99396.78;5078064;28;20170;-85
2022/09/08 03:00:53;;;;;;;16.83;12.63;;;;;;;13.34;100.00;99399.06;5079289;28;20194;-85
2022/09/08 03:03:19;;;;;;;17.87;12.13;;;;;;;14.35;100.00;99579.66;5078885;28;20222;-85
2022/09/08 03:05:45;;;;;;;17.53;12.43;;;;;;;13.83;100.00;99515.13;5069880;28;20209;-85
2022/09/08 03:08:11;;;;;;;15.83;12.50;;;;;;;13.53;100.00;99497.16;5067276;28;20181;-85
2022/09/08 03:10:37;;;;;;;16.60;12.70;;;;;;;12.34;100.00;99333.75;5067040;28;20231;-85
2022/09/08 03:13:02;;;;;;;18.57;13.37;;;;;;;10.66;100.00;99056.28;5059952;28;20553;-85
2022/09/08 03:15:29;;;;;;;21.43;13.63;;;;;;;13.80;100.00;99593.91;5068020;28;20197;-86
2022/09/08 03:17:55;;;;;;;18.10;12.60;;;;;;;13.12;100.00;99457.63;5079044;28;20183;-86
2022/09/08 03:20:22;;;;;;;20.90;13.20;;;;;;;12.28;100.00;99323.38;5079205;28;20169;-85
2022/09/08 03:22:48;;;;;;;16.63;12.83;;;;;;;13.78;100.00;99598.94;5077933;28;20161;-86
2022/09/08 03:25:15;;;;;;;18.37;12.90;;;;;;;13.84;100.00;99595.75;5068883;28;20566;-84
2022/09/08 03:27:41;;;;;;;15.57;11.97;;;;;;;13.78;100.00;99550.59;5058037;28;20169;-85
2022/09/08 03:30:10;;;;;;;17.70;12.63;;;;;;;13.85;100.00;99602.53;5058295;28;20196;-85
2022/09/08 03:32:37;;;;;;;17.57;12.50;;;;;;;13.46;100.00;99584.22;5065902;28;20219;-85
2022/09/08 03:35:05;;;;;;;17.83;12.70;;;;;;;13.63;100.00;99585.69;5080310;28;20235;-86
2022/09/08 03:37:31;;;;;;;19.33;12.20;;;;;;;11.14;100.00;99209.22;5084729;28;20181;-86
2022/09/08 03:39:56;;;;;;;19.00;12.63;;;;;;;12.57;100.00;99454.78;5086527;28;20648;-86
2022/09/08 03:42:22;;;;;;;19.83;12.40;;;;;;;11.78;100.00;99334.25;5102700;28;20173;-85
2022/09/08 03:44:47;;;;;;;24.80;12.90;;;;;;;11.21;100.00;99261.84;5069885;28;20200;-85
2022/09/08 03:47:13;;;;;;;18.47;12.43;;;;;;;13.21;100.00;99574.03;5060294;28;20158;-85
2022/09/08 03:49:38;;;;;;;16.80;12.70;;;;;;;13.41;100.00;99596.78;5070891;28;20168;-85
2022/09/08 03:52:05;;;;;;;19.53;13.03;;;;;;;13.48;100.00;99592.81;5057396;28;20169;-86
2022/09/08 03:54:49;;;;;;;19.90;12.70;;;;;;;13.80;100.00;99593.91;5080840;28;20160;-86
2022/09/08 03:57:16;;;;;;;22.73;12.57;;;;;;;13.86;100.00;99589.88;5085567;28;20188;-86
2022/09/08 03:59:42;;;;;;;17.93;12.47;;;;;;;13.01;100.00;99456.38;5082084;28;20188;-85
2022/09/08 04:02:08;;;;;;;18.33;12.00;;;;;;;13.92;100.00;99599.41;5089030;28;20227;-86
2022/09/08 04:04:34;;;;;;;17.00;11.50;;;;;;;12.90;100.00;99384.84;5055399;28;20676;-86
2022/09/08 04:06:59;;;;;;;19.87;12.27;;;;;;;12.45;100.00;99314.69;5056154;28;20170;-85
2022/09/08 04:09:25;;;;;;;17.50;11.53;;;;;;;13.65;100.00;99594.25;5054627;28;20645;-85
2022/09/08 04:11:50;;;;;;;18.20;11.87;;;;;;;13.07;100.00;99516.72;5055072;28;20157;-85
2022/09/08 04:14:16;;;;;;;17.10;12.17;;;;;;;13.46;100.00;99599.50;5074093;28;20165;-86
2022/09/08 04:16:42;;;;;;;17.63;12.47;;;;;;;12.90;100.00;99499.19;5074218;28;20243;-86
2022/09/08 04:19:07;;;;;;;19.13;12.13;;;;;;;13.00;100.00;99505.44;5074652;28;20168;-85
2022/09/08 04:21:33;;;;;;;17.87;12.20;;;;;;;13.02;100.00;99486.03;5075172;28;20160;-85
2022/09/08 04:24:01;;;;;;;17.90;12.07;;;;;;;12.47;100.00;99370.63;5058655;28;20553;-85
2022/09/08 04:26:27;;;;;;;20.77;12.20;;;;;;;13.30;100.00;99537.06;5056143;28;20160;-86
2022/09/08 04:28:53;;;;;;;17.23;12.53;;;;;;;13.12;100.00;99484.72;5056937;28;20157;-85
2022/09/08 04:31:20;;;;;;;16.17;11.27;;;;;;;14.05;100.00;99607.50;5062204;28;20215;-86
2022/09/08 04:33:45;;;;;;;16.30;11.40;;;;;;;13.26;100.00;99481.84;5089862;28;20216;-86
2022/09/08 04:36:15;;;;;;;16.73;11.37;;;;;;;14.31;100.00;99604.94;5055171;28;20193;-86
2022/09/08 04:38:42;;;;;;;16.43;11.40;;;;;;;14.38;100.00;99617.06;5055115;28;20193;-85
2022/09/08 04:41:11;;;;;;;17.33;12.00;;;;;;;14.46;100.00;99616.50;5090842;28;20169;-85
2022/09/08 04:43:37;;;;;;;17.97;11.80;;;;;;;14.53;100.00;99618.41;5084073;28;20181;-86
2022/09/08 04:46:07;;;;;;;18.83;11.97;;;;;;;14.45;100.00;99630.03;5079262;28;20163;-85
2022/09/08 04:48:34;;;;;;;14.90;11.13;;;;;;;14.24;100.00;99625.91;5082686;28;20165;-85
2022/09/08 04:51:00;;;;;;;16.23;12.13;;;;;;;14.04;100.00;99641.41;5077657;28;20168;-85
2022/09/08 04:53:28;;;;;;;14.60;11.77;;;;;;;14.05;100.00;99604.09;5060615;28;20234;-86
2022/09/08 04:55:54;;;;;;;15.93;11.23;;;;;;;13.09;100.00;99495.66;5069555;28;20200;-86
2022/09/08 04:58:20;;;;;;;16.50;12.63;;;;;;;14.15;100.00;99654.47;5054604;28;20161;-86
2022/09/08 05:00:46;;;;;;;17.07;11.90;;;;;;;11.76;100.00;99264.81;5082420;28;20177;-84
2022/09/08 05:03:11;;;;;;;16.73;12.00;;;;;;;11.95;100.00;99282.44;5053645;28;20180;-85
2022/09/08 05:05:37;;;;;;;15.00;11.30;;;;;;;13.83;100.00;99541.44;5052864;28;20625;-85
2022/09/08 05:08:03;;;;;;;16.70;11.33;;;;;;;14.62;100.00;99628.91;5053679;28;20169;-87
2022/09/08 05:10:31;;;;;;;18.70;11.67;;;;;;;14.84;100.00;99652.50;5057785;28;20211;-85
2022/09/08 05:12:57;;;;;;;18.90;11.50;;;;;;;14.99;100.00;99650.44;5074817;28;20599;-85
2022/09/08 05:15:22;;;;;;;20.63;11.63;;;;;;;13.24;100.00;99320.75;5073858;28;20157;-85
2022/09/08 05:17:48;;;;;;;18.50;11.43;;;;;;;14.17;100.00;99424.56;5078161;28;20637;-85
2022/09/08 05:20:14;;;;;;;17.43;11.00;;;;;;;14.46;100.00;99472.97;5076751;28;20241;-86
2022/09/08 05:22:40;;;;;;;22.23;11.00;;;;;;;15.00;100.00;99539.94;5059508;28;20252;-85
2022/09/08 05:25:06;;;;;;;17.30;11.40;;;;;;;14.87;100.00;99441.03;5062454;28;20168;-86
2022/09/08 05:27:31;;;;;;;21.47;11.80;;;;;;;15.00;100.00;99412.47;5058031;28;20154;-85
2022/09/08 05:29:57;;;;;;;18.67;11.13;;;;;;;15.12;100.00;99411.13;5057759;28;20516;-85
2022/09/08 05:32:22;;;;;;;15.73;11.23;;;;;;;16.69;100.00;99633.78;5080952;28;20226;-85
2022/09/08 05:34:47;;;;;;;20.00;11.90;;;;;;;16.84;100.00;99648.59;5076459;28;20614;-87
2022/09/08 05:37:13;;;;;;;17.27;11.13;;;;;;;15.54;100.00;99470.06;5092731;28;20212;-85
2022/09/08 05:39:38;;;;;;;15.20;11.37;;;;;;;16.70;100.00;99650.84;5067023;28;20200;-85
2022/09/08 05:42:04;;;;;;;17.73;11.00;;;;;;;16.33;100.00;99584.31;5057359;28;20176;-85
2022/09/08 05:44:30;;;;;;;19.93;12.03;;;;;;;15.56;100.00;99419.03;5072836;28;20188;-84
2022/09/08 05:46:55;;;;;;;17.50;11.80;;;;;;;16.23;100.00;99510.88;5056854;28;20168;-85
2022/09/08 05:49:21;;;;;;;16.93;10.93;;;;;;;16.88;100.00;99650.41;5063604;28;20175;-86
2022/09/08 05:51:47;;;;;;;14.50;11.20;;;;;;;15.77;100.00;99438.28;5077065;28;20579;-86
2022/09/08 05:54:13;;;;;;;18.30;11.30;;;;;;;17.23;98.94;99646.03;5077183;28;20164;-85
2022/09/08 05:56:38;;;;;;;13.87;10.03;;;;;;;16.14;98.08;99472.34;5085549;28;20189;-86
2022/09/08 05:59:04;;;;;;;13.87;10.20;;;;;;;16.85;98.86;99594.94;5069917;28;20169;-84
2022/09/08 06:01:32;;;;;;;18.40;11.30;;;;;;;16.76;99.79;99594.72;5068614;28;20654;-85
2022/09/08 06:03:59;;;;;;;16.13;10.70;;;;;;;17.52;96.63;99639.84;5088604;28;20180;-85
2022/09/08 06:06:25;;;;;;;17.87;10.23;;;;;;;17.56;91.49;99555.47;5107600;28;20208;-84
2022/09/08 06:08:53;;;;;;;14.67;9.90;;;;;;;17.95;90.74;99638.97;5084648;28;20192;-86
2022/09/08 06:11:18;;;;;;;15.67;9.80;;;;;;;17.68;86.84;99514.72;5073860;28;20200;-85
2022/09/08 06:13:43;;;;;;;16.30;9.90;;;;;;;16.90;84.94;99341.84;5056004;28;20729;-85
2022/09/08 06:16:11;;;;;;;14.63;9.03;;;;;;;18.35;80.22;99579.00;5058320;28;20225;-85
2022/09/08 06:18:39;;;;;;;13.20;8.83;;;;;;;18.45;80.34;99645.81;5054416;28;20185;-85
2022/09/08 06:21:10;;;;;;;12.83;8.70;;;;;;;17.83;79.76;99559.34;5068048;28;20208;-85
2022/09/08 06:23:36;;;;;;;10.80;8.83;;;;;;;18.76;79.98;99642.91;5057066;28;20568;-86
2022/09/08 06:26:27;;;;;;;12.77;9.03;;;;;;;19.25;78.15;99647.03;5078469;28;20273;-86
2022/09/08 06:28:57;;;;;;;14.20;9.53;;;;;;;19.52;76.39;99637.97;5029030;28;20202;-86
2022/09/08 06:31:32;;;;;;;14.27;9.00;;;;;;;19.53;75.17;99650.81;5031422;28;20237;-85
2022/09/08 06:34:03;;;;;;;13.70;8.57;;;;;;;18.98;73.75;99505.53;5032972;28;20250;-85
2022/09/08 06:36:49;;;;;;;11.33;8.67;;;;;;;19.75;72.16;99596.25;5032539;28;20236;-85
2022/09/08 06:39:23;;;;;;;13.30;8.83;;;;;;;20.40;70.98;99653.47;5014003;28;20207;-85
2022/09/08 06:42:03;;;;;;;13.30;9.23;;;;;;;20.07;70.46;99637.72;5023220;28;20208;-85
2022/09/08 06:44:33;;;;;;;16.17;8.73;;;;;;;20.02;70.75;99613.69;5032346;28;20181;-85
2022/09/08 06:46:59;;;;;;;13.07;8.43;;;;;;;20.65;69.34;99645.94;5031886;28;20208;-85
2022/09/08 06:49:28;;;;;;;13.33;8.50;;;;;;;20.90;68.64;99645.25;5011812;28;20213;-84
2022/09/08 06:52:06;;;;;;;13.97;9.57;;;;;;;19.25;67.82;99377.50;5022482;28;20286;-84
2022/09/08 06:54:45;;;;;;;11.83;8.93;;;;;;;19.80;67.29;99434.47;5031859;28;20200;-86
2022/09/08 06:57:25;;;;;;;14.30;9.33;;;;;;;21.32;66.63;99658.38;5032602;28;20205;-85
2022/09/08 07:00:00;;;;;;;14.00;9.07;;;;;;;21.51;65.39;99649.88;5002201;28;20244;-86
2022/09/08 07:02:48;;;;;;;11.27;8.40;;;;;;;21.04;66.04;99652.19;5019555;28;20886;-86
2022/09/08 07:05:45;;;;;;;14.37;8.03;;;;;;;20.71;67.70;99651.16;5026550;28;20190;-86
2022/09/08 07:08:20;;;;;;;13.13;8.13;;;;;;;21.18;65.41;99660.03;5063093;28;20243;-85
2022/09/08 07:10:55;;;;;;;13.53;8.27;;;;;;;20.96;64.43;99571.50;5055665;28;20242;-85
2022/09/08 07:13:50;;;;;;;15.80;8.60;;;;;;;21.52;64.36;99636.16;5073315;28;20203;-85
2022/09/08 07:16:40;;;;;;;16.73;10.30;;;;;;;21.72;63.76;99659.41;5053413;28;20248;-85
2022/09/08 07:19:17;;;;;;;13.93;10.27;;;;;;;21.86;62.86;99662.03;5050607;28;20209;-85
2022/09/08 07:21:53;;;;;;;13.17;9.73;;;;;;;21.64;61.90;99563.19;5055142;28;20189;-85
2022/09/08 07:24:23;;;;;;;15.17;10.30;;;;;;;22.45;60.68;99660.41;5051359;28;20532;-85
2022/09/08 07:26:56;;;;;;;13.27;9.67;;;;;;;22.07;61.05;99633.75;5050216;28;20200;-85
2022/09/08 07:29:35;;;;;;;13.97;9.10;;;;;;;22.34;61.02;99659.56;5032065;28;20190;-85
2022/09/08 07:32:02;;;;;;;12.23;9.03;;;;;;;22.64;60.76;99662.16;5048300;28;20239;-85
2022/09/08 07:34:31;;;;;;;14.77;9.00;;;;;;;22.90;59.53;99655.28;5050782;28;20240;-85
2022/09/08 07:37:14;;;;;;;11.70;8.90;;;;;;;23.16;59.24;99657.78;5050921;28;20753;-85
2022/09/08 07:39:53;;;;;;;13.53;9.23;;;;;;;21.50;59.12;99387.97;5031328;28;20674;-85
2022/09/08 07:42:19;;;;;;;12.00;8.80;;;;;;;21.85;58.80;99418.00;5044237;28;20185;-86
2022/09/08 07:44:46;;;;;;;15.57;9.07;;;;;;;22.27;58.52;99488.47;5052463;28;20192;-85
2022/09/08 07:47:37;;;;;;;12.17;8.73;;;;;;;23.54;57.80;99665.41;5048478;28;20219;-86
2022/09/08 07:50:56;;;;;;;14.00;8.70;;;;;;;24.07;56.39;99662.56;5030390;28;20189;-86
2022/09/08 07:53:46;;;;;;;10.83;8.60;;;;;;;23.70;56.89;99676.56;4989573;28;20371;-85
2022/09/08 07:56:15;;;;;;;14.93;9.00;;;;;;;23.00;56.20;99526.97;5029513;28;20248;-85
2022/09/08 07:58:51;;;;;;;12.47;8.40;;;;;;;24.43;55.43;99671.81;5012385;28;20190;-85
2022/09/08 08:01:25;;;;;;;15.40;8.97;;;;;;;24.60;54.67;99680.31;5004312;28;20265;-85
2022/09/08 08:04:12;;;;;;;14.77;8.30;;;;;;;24.63;54.51;99675.13;5030082;28;20688;-84
2022/09/08 08:06:48;;;;;;;14.40;8.63;;;;;;;24.26;54.46;99627.09;5030270;28;20263;-85
2022/09/08 08:09:31;;;;;;;17.03;7.97;;;;;;;24.23;55.31;99653.00;5035586;28;20186;-86
2022/09/08 08:12:38;;;;;;;10.53;8.37;;;;;;;23.65;56.98;99673.97;5037461;28;21076;-85
2022/09/08 08:15:16;;;;;;;13.73;8.70;;;;;;;24.02;55.83;99665.19;4993050;28;20210;-85
2022/09/08 08:17:54;;;;;;;12.33;7.70;;;;;;;23.87;55.18;99602.34;4990404;28;20697;-86
2022/09/08 08:20:53;;;;;;;12.00;7.50;;;;;;;24.93;53.89;99679.19;4971931;28;20202;-84
2022/09/08 08:23:57;;;;;;;11.63;8.23;;;;;;;24.81;53.05;99662.03;4976993;28;20192;-85
2022/09/08 08:26:29;;;;;;;11.77;8.00;;;;;;;25.18;53.26;99668.56;4988348;28;20249;-85
2022/09/08 08:29:50;;;;;;;9.67;7.37;;;;;;;25.42;51.71;99670.00;5002272;28;20185;-86
2022/09/08 08:32:27;;;;;;;12.03;7.27;;;;;;;25.10;51.86;99600.41;4894957;29;20194;-86
2022/09/08 08:35:07;;;;;;;10.70;7.07;;;;;;;25.78;50.33;99660.94;4893955;29;20683;-86
2022/09/08 08:37:36;;;;;;;9.57;7.30;;;;;;;25.20;51.01;99581.28;4893539;29;20257;-86
2022/09/08 08:40:20;;;;;;;8.80;7.30;;;;;;;25.77;50.45;99656.63;4893253;29;20203;-86
2022/09/08 08:43:13;;;;;;;12.93;7.50;;;;;;;25.23;51.44;99656.41;4894108;29;20241;-86
2022/09/08 08:46:04;;;;;;;11.20;7.23;;;;;;;25.54;51.14;99653.47;4893978;29;20208;-86
2022/09/08 08:48:54;;;;;;;11.50;7.60;;;;;;;26.40;49.70;99654.00;4893793;29;20277;-86
2022/09/08 08:51:28;;;;;;;11.27;7.63;;;;;;;26.94;48.06;99645.28;4900254;29;20193;-86
2022/09/08 08:54:20;;;;;;;14.67;7.97;;;;;;;27.03;47.38;99647.69;4934845;29;20193;-86
2022/09/08 08:57:20;;;;;;;15.03;7.70;;;;;;;26.59;48.85;99645.03;4935881;29;20221;-86
2022/09/08 08:59:48;;;;;;;10.13;7.40;;;;;;;26.70;47.82;99641.34;4921676;29;20208;-86
2022/09/08 09:02:32;;;;;;;11.82;7.30;;;;;;;26.71;47.81;99618.81;4917453;29;20330;-85
2022/09/08 09:05:22;;;;;;;10.15;7.18;;;;;;;27.40;46.21;99632.22;4922527;29;20378;-84
2022/09/08 09:07:57;;;;;;;11.73;7.15;;;;;;;27.56;45.63;99627.59;4950109;28;20209;-85
2022/09/08 09:10:37;;;;;;;12.20;7.72;;;;;;;27.54;45.59;99630.22;5071050;28;20178;-85
2022/09/08 09:13:05;;;;;;;10.63;6.90;;;;;;;27.33;46.29;99631.50;5071865;28;20256;-85
2022/09/08 09:15:52;;;;;;;10.95;7.63;;;;;;;27.15;46.54;99620.59;5060210;28;20182;-86
2022/09/08 09:18:39;;;;;;;10.02;6.70;;;;;;;27.02;46.63;99621.75;5055050;28;20277;-86
2022/09/08 09:21:40;;;;;;;12.57;7.55;;;;;;;25.52;46.93;99344.09;5073127;28;20262;-86
2022/09/08 09:24:28;;;;;;;9.07;7.50;;;;;;;26.75;47.81;99599.69;5063967;28;20278;-85
2022/09/08 09:26:53;;;;;;;12.80;7.65;;;;;;;26.55;47.31;99509.16;5054194;28;20202;-85
2022/09/08 09:29:25;;;;;;;11.60;7.72;;;;;;;26.87;47.86;99544.91;5061392;28;20183;-85
2022/09/08 09:32:09;;;;;;;10.70;7.07;;;;;;;27.49;46.32;99593.06;5071232;28;20178;-85
2022/09/08 09:35:13;;;;;;;10.15;7.00;;;;;;;27.63;45.29;99600.56;5070974;28;20224;-86
2022/09/08 09:37:57;;;;;;;8.60;6.57;;;;;;;27.55;44.83;99600.75;5072889;28;20216;-87
2022/09/08 09:40:55;;;;;;;11.50;6.95;;;;;;;27.76;44.73;99604.59;5071544;28;20190;-86
2022/09/08 09:43:36;;;;;;;9.70;6.97;;;;;;;27.49;44.65;99604.34;5030291;28;20223;-86
2022/09/08 09:46:04;;;;;;;10.93;6.60;;;;;;;27.48;44.73;99599.16;5014217;28;20239;-86
2022/09/08 09:48:35;;;;;;;10.05;6.85;;;;;;;27.74;44.25;99589.03;5011565;28;20212;-86
2022/09/08 09:51:22;;;;;;;9.20;6.60;;;;;;;28.20;43.51;99591.44;5028994;28;20193;-86
2022/09/08 09:54:03;;;;;;;8.57;6.72;;;;;;;28.35;42.64;99579.78;5031174;28;20218;-86
2022/09/08 09:57:01;;;;;;;7.95;6.10;;;;;;;28.56;42.34;99595.72;5029334;28;20649;-86
2022/09/08 10:00:05;;;;;;;7.50;6.70;;;;;;;28.77;42.33;99589.09;5030151;28;20203;-85
2022/09/08 10:02:50;;;;;;;10.02;6.65;;;;;;;28.68;42.22;99587.59;5029996;28;20215;-86
2022/09/08 10:05:37;;;;;;;10.30;7.03;;;;;;;28.76;42.26;99584.78;5029009;28;20322;-85
2022/09/08 10:08:08;;;;;;;10.52;6.70;;;;;;;28.29;42.32;99587.75;5005219;28;20195;-86
2022/09/08 10:10:39;;;;;;;7.85;6.43;;;;;;;28.48;42.64;99587.25;5017023;28;20194;-86
2022/09/08 10:13:56;;;;;;;7.80;6.63;;;;;;;28.26;42.56;99580.88;5011849;28;20202;-85
2022/09/08 10:16:51;;;;;;;22.90;7.70;;;;;;;28.05;42.62;99560.53;4976085;28;20282;-85
2022/09/08 10:19:54;;;;;;;11.43;7.18;;;;;;;28.09;43.36;99572.63;4921053;29;20203;-85
2022/09/08 10:22:25;;;;;;;8.45;6.65;;;;;;;28.50;41.51;99567.22;4935338;29;20196;-85
2022/09/08 10:25:18;;;;;;;7.60;6.80;;;;;;;28.22;42.22;99558.38;4934883;29;20673;-85
2022/09/08 10:27:43;;;;;;;11.13;6.65;;;;;;;28.13;42.60;99550.81;4934890;29;20617;-85
2022/09/08 10:30:41;;;;;;;7.63;6.55;;;;;;;28.39;42.54;99537.13;4948320;29;20219;-85
2022/09/08 10:33:27;;;;;;;10.32;6.53;;;;;;;28.07;41.97;99405.19;4937915;29;20220;-85
2022/09/08 10:36:02;;;;;;;8.38;6.97;;;;;;;25.79;43.05;99058.28;4935457;29;20226;-85
2022/09/08 10:38:55;;;;;;;11.90;6.95;;;;;;;28.00;43.60;99524.19;4937409;29;20696;-85
2022/09/08 10:41:39;;;;;;;11.25;7.15;;;;;;;27.98;43.51;99522.53;4928096;29;20220;-86
2022/09/08 10:44:19;;;;;;;12.02;7.38;;;;;;;27.88;43.61;99471.59;4942217;28;20344;-85
2022/09/08 10:47:15;;;;;;;8.00;7.15;;;;;;;28.54;43.60;99523.72;4952413;29;20195;-85
2022/09/08 10:50:15;;;;;;;9.23;7.35;;;;;;;28.86;42.84;99520.22;4935265;29;20700;-86
2022/09/08 10:52:43;;;;;;;8.40;6.95;;;;;;;28.76;42.42;99529.22;4966762;28;20206;-86
2022/09/08 10:55:41;;;;;;;12.70;7.03;;;;;;;28.47;42.39;99507.38;5005323;28;20207;-85
2022/09/08 10:58:43;;;;;;;9.82;7.07;;;;;;;28.15;44.16;99496.97;5032243;28;20228;-87
2022/09/08 11:01:22;;;;;;;15.40;7.65;;;;;;;28.60;43.17;99503.53;4943839;29;20282;-87
2022/09/08 11:04:08;;;;;;;9.70;6.80;;;;;;;28.79;42.13;99492.63;4954473;29;20683;-85
2022/09/08 11:06:42;;;;;;;9.55;6.72;;;;;;;28.07;42.60;99408.63;4953928;29;20199;-85
2022/09/08 11:09:37;;;;;;;10.93;7.13;;;;;;;28.67;42.67;99481.66;4983879;28;20188;-85
2022/09/08 11:12:09;;;;;;;9.90;7.07;;;;;;;28.64;42.58;99483.50;5011905;28;20225;-86
2022/09/08 11:14:34;;;;;;;8.77;6.90;;;;;;;28.58;43.04;99476.66;5011506;28;20221;-86
2022/09/08 11:17:12;;;;;;;10.43;7.10;;;;;;;28.49;42.77;99469.09;5011956;28;20261;-86
2022/09/08 11:19:37;;;;;;;8.80;6.82;;;;;;;28.64;42.98;99470.47;5012078;28;20166;-86
2022/09/08 11:22:28;;;;;;;10.68;7.35;;;;;;;26.77;42.92;99166.66;5001531;28;20245;-85
2022/09/08 11:25:18;;;;;;;12.38;7.15;;;;;;;27.67;42.59;99331.63;5015531;28;20201;-87
2022/09/08 11:27:46;;;;;;;10.23;7.10;;;;;;;28.24;43.14;99457.63;5022639;28;20170;-85
2022/09/08 11:30:19;;;;;;;8.30;7.00;;;;;;;28.02;42.75;99383.56;5016844;28;20792;-86
2022/09/08 11:33:19;;;;;;;8.43;6.65;;;;;;;28.16;41.77;99419.69;5012939;28;20241;-85
2022/09/08 11:36:02;;;;;;;9.10;6.68;;;;;;;28.41;41.87;99449.38;5017762;28;20213;-85
2022/09/08 11:39:02;;;;;;;9.73;6.93;;;;;;;28.84;41.06;99460.34;5075775;28;20164;-85
2022/09/08 11:41:30;;;;;;;9.82;7.15;;;;;;;29.33;40.92;99459.72;5074446;28;20149;-85
2022/09/08 11:44:17;;;;;;;11.60;6.90;;;;;;;29.99;40.30;99458.47;5074064;28;20254;-85
2022/09/08 11:47:13;;;;;;;8.75;6.47;;;;;;;30.12;39.09;99457.13;5074704;28;20246;-85
2022/09/08 11:50:00;;;;;;;9.50;6.38;;;;;;;30.08;39.25;99460.75;5074207;28;20539;-85
2022/09/08 11:52:26;;;;;;;7.93;6.10;;;;;;;30.52;37.86;99454.81;5073443;28;20157;-85
2022/09/08 11:55:10;;;;;;;7.05;6.15;;;;;;;30.56;39.46;99445.97;5090671;28;20184;-85
2022/09/08 11:57:45;;;;;;;12.73;6.40;;;;;;;31.18;37.71;99445.41;5075753;28;20204;-85